sensor_id;sensor_type;location;lat;lon;timestamp;temperature;humidity
20370;DHT22;10344;47.592;9.600;2023-01-15T13:10:47;5.40;99.90
20370;DHT22;10344;47.592;9.600;2023-01-15T15:32:32;5.60;99.90
20370;DHT22;10344;47.592;9.600;2023-01-15T15:35:27;5.60;99.90
20370;DHT22;10344;47.592;9.600;2023-01-15T15:38:18;5.50;99.90
20370;DHT22;10344;47.592;9.600;2023-01-15T15:41:16;5.50;99.90
20370;DHT22;10344;47.592;9.600;2023-01-15T15:44:12;5.50;99.90
20370;DHT22;10344;47.592;9.600;2023-01-15T15:47:20;5.50;99.90
20370;DHT22;10344;47.592;9.600;2023-01-15T15:52:49;5.60;99.90
20370;DHT22;10344;47.592;9.600;2023-01-15T15:55:43;5.70;99.90
20370;DHT22;10344;47.592;9.600;2023-01-15T15:58:36;5.80;99.90
20370;DHT22;10344;47.592;9.600;2023-01-15T16:01:13;5.70;99.90
20370;DHT22;10344;47.592;9.600;2023-01-15T16:04:14;5.60;99.90
20370;DHT22;10344;47.592;9.600;2023-01-15T16:06:45;5.60;99.90
20370;DHT22;10344;47.592;9.600;2023-01-15T16:09:45;5.60;99.90
20370;DHT22;10344;47.592;9.600;2023-01-15T16:12:18;5.60;99.90
20370;DHT22;10344;47.592;9.600;2023-01-15T16:14:51;5.50;99.90
20370;DHT22;10344;47.592;9.600;2023-01-15T17:57:31;4.40;99.90
20370;DHT22;10344;47.592;9.600;2023-01-15T18:00:43;4.30;99.90
20370;DHT22;10344;47.592;9.600;2023-01-15T18:03:46;4.20;99.90
20370;DHT22;10344;47.592;9.600;2023-01-15T18:07:14;4.00;99.90
20370;DHT22;10344;47.592;9.600;2023-01-15T21:03:48;4.50;99.90
20370;DHT22;10344;47.592;9.600;2023-01-15T21:10:45;4.50;99.90
20370;DHT22;10344;47.592;9.600;2023-01-15T21:14:04;4.50;99.90
20370;DHT22;10344;47.592;9.600;2023-01-15T21:16:55;4.50;99.90
20370;DHT22;10344;47.592;9.600;2023-01-15T21:19:53;4.60;99.90
20370;DHT22;10344;47.592;9.600;2023-01-15T21:23:07;4.50;99.90
20370;DHT22;10344;47.592;9.600;2023-01-15T21:37:29;4.50;99.90
20370;DHT22;10344;47.592;9.600;2023-01-15T21:41:13;4.50;99.90
20370;DHT22;10344;47.592;9.600;2023-01-15T22:07:35;4.40;99.90
20370;DHT22;10344;47.592;9.600;2023-01-15T22:10:04;4.40;99.90
20370;DHT22;10344;47.592;9.600;2023-01-15T22:12:40;4.30;99.90
20370;DHT22;10344;47.592;9.600;2023-01-15T22:15:13;4.20;99.90
20370;DHT22;10344;47.592;9.600;2023-01-15T22:18:07;4.10;99.90
20370;DHT22;10344;47.592;9.600;2023-01-15T22:21:07;4.10;99.90
20370;DHT22;10344;47.592;9.600;2023-01-15T22:23:55;4.10;99.90
20370;DHT22;10344;47.592;9.600;2023-01-15T22:26:24;4.20;99.90
20370;DHT22;10344;47.592;9.600;2023-01-15T22:29:03;4.20;99.90
20370;DHT22;10344;47.592;9.600;2023-01-15T22:31:30;4.20;99.90
20370;DHT22;10344;47.592;9.600;2023-01-15T22:33:58;4.10;99.90
20370;DHT22;10344;47.592;9.600;2023-01-15T22:36:36;3.90;99.90
20370;DHT22;10344;47.592;9.600;2023-01-15T22:39:04;3.70;99.90
20370;DHT22;10344;47.592;9.600;2023-01-15T22:41:37;3.60;99.90
20370;DHT22;10344;47.592;9.600;2023-01-15T22:44:27;3.50;99.90
20370;DHT22;10344;47.592;9.600;2023-01-15T22:47:00;3.40;99.90
20370;DHT22;10344;47.592;9.600;2023-01-15T22:49:31;3.30;99.90
20370;DHT22;10344;47.592;9.600;2023-01-15T22:52:02;3.10;99.90
20370;DHT22;10344;47.592;9.600;2023-01-15T22:54:36;3.00;99.90
20370;DHT22;10344;47.592;9.600;2023-01-15T22:57:26;2.80;99.90
20370;DHT22;10344;47.592;9.600;2023-01-15T22:59:58;2.80;99.90
20370;DHT22;10344;47.592;9.600;2023-01-15T23:02:26;2.70;99.90
20370;DHT22;10344;47.592;9.600;2023-01-15T23:05:36;2.70;99.90
20370;DHT22;10344;47.592;9.600;2023-01-15T23:25:35;3.30;99.90
20370;DHT22;10344;47.592;9.600;2023-01-15T23:30:58;3.30;99.90
